createdAt,value
2018-05-07T00:00:32.123Z,1.50
2018-05-07T00:01:32.365Z,1.30
2018-05-07T00:02:32.603Z,1.20
2018-05-07T00:03:32.845Z,1.70
2018-05-07T00:04:33.077Z,1.50
2018-05-07T00:05:33.318Z,1.40
2018-05-07T00:06:34.229Z,1.60
2018-05-07T00:07:33.787Z,2.00
2018-05-07T00:08:34.069Z,2.00
2018-05-07T00:09:34.318Z,1.60
2018-05-07T00:10:34.511Z,1.60
2018-05-07T00:11:34.842Z,1.60
2018-05-07T00:12:34.995Z,1.60
2018-05-07T00:13:35.234Z,1.60
2018-05-07T00:14:35.475Z,1.80
2018-05-07T00:15:35.715Z,1.70
2018-05-07T00:16:35.959Z,1.70
2018-05-07T00:17:36.196Z,1.50
2018-05-07T00:18:36.438Z,1.80
2018-05-07T00:19:36.681Z,1.40
2018-05-07T00:20:36.976Z,1.60
2018-05-07T00:21:37.167Z,2.00
2018-05-07T00:22:37.427Z,1.60
2018-05-07T00:23:37.644Z,1.70
2018-05-07T00:24:37.886Z,1.70
2018-05-07T00:25:38.127Z,1.60
2018-05-07T00:26:38.431Z,1.50
2018-05-07T00:27:38.610Z,1.90
2018-05-07T00:28:38.854Z,1.60
2018-05-07T00:29:39.092Z,1.40
2018-05-07T00:30:39.331Z,1.90
2018-05-07T00:31:39.574Z,1.90
2018-05-07T00:32:39.819Z,1.70
2018-05-07T00:33:40.057Z,1.60
2018-05-07T00:34:40.301Z,1.70
2018-05-07T00:35:40.539Z,1.90
2018-05-07T00:36:40.780Z,1.80
2018-05-07T00:37:41.020Z,1.50
2018-05-07T00:38:41.261Z,1.60
2018-05-07T00:39:41.501Z,1.60
2018-05-07T00:40:41.742Z,1.50
2018-05-07T00:41:41.982Z,1.40
2018-05-07T00:42:42.221Z,1.40
2018-05-07T00:43:42.462Z,1.70
2018-05-07T00:44:42.701Z,2.00
2018-05-07T00:45:42.946Z,1.90
2018-05-07T00:46:43.184Z,1.80
2018-05-07T00:47:43.428Z,1.70
2018-05-07T00:48:43.666Z,2.10
2018-05-07T00:49:43.901Z,1.70
2018-05-07T00:50:44.140Z,1.60
2018-05-07T00:51:44.378Z,2.10
2018-05-07T00:52:44.623Z,1.70
2018-05-07T00:53:44.863Z,1.80
2018-05-07T00:54:45.102Z,1.70
2018-05-07T00:55:45.342Z,1.70
2018-05-07T00:56:45.583Z,2.10
2018-05-07T00:57:45.823Z,2.20
2018-05-07T00:58:46.061Z,1.90
2018-05-07T00:59:46.292Z,2.10
2018-05-07T01:00:46.538Z,2.20
2018-05-07T01:01:46.780Z,2.30
2018-05-07T01:02:47.017Z,2.20
2018-05-07T01:03:47.257Z,2.30
2018-05-07T01:04:47.494Z,2.50
2018-05-07T01:05:47.738Z,2.40
2018-05-07T01:06:47.981Z,2.00
2018-05-07T01:07:48.220Z,2.20
2018-05-07T01:08:48.472Z,2.10
2018-05-07T01:09:48.707Z,1.90
2018-05-07T01:10:48.945Z,1.90
2018-05-07T01:11:49.186Z,1.70
2018-05-07T01:12:49.431Z,1.70
2018-05-07T01:13:49.671Z,2.10
2018-05-07T01:14:49.910Z,2.20
2018-05-07T01:15:50.148Z,2.40
2018-05-07T01:16:50.388Z,2.40
2018-05-07T01:17:50.627Z,2.60
2018-05-07T01:18:50.869Z,2.60
2018-05-07T01:19:51.111Z,2.30
2018-05-07T01:20:51.352Z,2.70
2018-05-07T01:21:51.592Z,2.60
2018-05-07T01:22:51.840Z,2.70
2018-05-07T01:23:52.098Z,2.90
2018-05-07T01:24:52.309Z,2.80
2018-05-07T01:25:52.550Z,3.20
2018-05-07T01:26:52.793Z,2.90
2018-05-07T01:27:53.029Z,3.20
2018-05-07T01:28:53.274Z,3.40
2018-05-07T01:29:53.512Z,3.60
2018-05-07T01:30:53.759Z,3.20
2018-05-07T01:31:53.996Z,3.10
2018-05-07T01:32:54.234Z,3.30
2018-05-07T01:33:54.477Z,3.30
2018-05-07T01:34:54.716Z,3.00
2018-05-07T01:35:54.958Z,3.70
2018-05-07T01:36:55.201Z,3.30
2018-05-07T01:37:55.438Z,3.30
2018-05-07T01:38:55.682Z,3.50
2018-05-07T01:39:55.921Z,3.90
2018-05-07T01:40:56.157Z,3.20
2018-05-07T01:41:56.401Z,3.70
2018-05-07T01:42:56.641Z,3.10
2018-05-07T01:43:56.880Z,3.30
2018-05-07T01:44:57.122Z,2.90
2018-05-07T01:45:57.359Z,3.40
2018-05-07T01:46:57.601Z,3.00
2018-05-07T01:47:57.841Z,3.00
2018-05-07T01:48:58.081Z,3.00
2018-05-07T01:49:58.319Z,3.10
2018-05-07T01:50:58.557Z,2.80
2018-05-07T01:51:58.790Z,3.20
2018-05-07T01:52:59.036Z,3.00
2018-05-07T01:53:59.278Z,2.40
2018-05-07T01:54:59.518Z,2.80
2018-05-07T01:55:59.755Z,2.90
2018-05-07T01:56:59.995Z,2.70
2018-05-07T01:58:00.234Z,2.50
2018-05-07T01:59:00.472Z,2.40
2018-05-07T02:00:00.713Z,2.40
2018-05-07T02:01:00.955Z,2.10
2018-05-07T02:02:01.196Z,2.20
2018-05-07T02:03:01.438Z,2.50
2018-05-07T02:04:01.673Z,2.40
2018-05-07T02:05:01.913Z,2.50
2018-05-07T02:06:02.188Z,2.10
2018-05-07T02:07:02.394Z,2.50
2018-05-07T02:08:02.634Z,3.20
2018-05-07T02:09:02.866Z,2.80
2018-05-07T02:10:03.110Z,2.90
2018-05-07T02:11:03.348Z,2.70
2018-05-07T02:12:03.588Z,2.60
2018-05-07T02:13:03.828Z,2.50
2018-05-07T02:14:04.067Z,2.40
2018-05-07T02:15:04.308Z,2.50
2018-05-07T02:16:04.549Z,2.40
2018-05-07T02:17:04.788Z,2.40
2018-05-07T02:18:05.029Z,2.40
2018-05-07T02:19:05.268Z,2.70
2018-05-07T02:20:05.507Z,2.30
2018-05-07T02:21:05.747Z,2.40
2018-05-07T02:22:05.985Z,2.30
2018-05-07T02:23:06.227Z,2.40
2018-05-07T02:24:06.471Z,2.60
2018-05-07T02:25:06.708Z,2.70
2018-05-07T02:26:06.949Z,2.60
2018-05-07T02:27:07.192Z,2.70
2018-05-07T02:28:07.430Z,2.30
2018-05-07T02:29:07.670Z,2.30
2018-05-07T02:30:07.909Z,2.50
2018-05-07T02:31:08.151Z,2.70
2018-05-07T02:32:08.396Z,2.80
2018-05-07T02:33:08.627Z,2.60
2018-05-07T02:34:08.873Z,1.90
2018-05-07T02:35:09.108Z,2.30
2018-05-07T02:36:09.351Z,2.60
2018-05-07T02:37:09.589Z,2.30
2018-05-07T02:38:09.829Z,2.70
2018-05-07T02:39:10.063Z,2.90
2018-05-07T02:40:10.302Z,2.10
2018-05-07T02:41:10.545Z,2.80
2018-05-07T02:42:10.782Z,2.70
2018-05-07T02:43:11.021Z,3.00
2018-05-07T02:44:11.265Z,3.10
2018-05-07T02:45:11.507Z,2.90
2018-05-07T02:46:11.742Z,2.60
2018-05-07T02:47:11.983Z,3.30
2018-05-07T02:48:12.224Z,3.70
2018-05-07T02:49:12.461Z,4.10
2018-05-07T02:50:12.700Z,4.10
2018-05-07T02:51:12.939Z,3.80
2018-05-07T02:52:13.184Z,4.30
2018-05-07T02:53:13.422Z,4.10
2018-05-07T02:54:13.657Z,5.00
2018-05-07T02:55:13.901Z,4.20
2018-05-07T02:56:14.138Z,4.30
2018-05-07T02:57:14.378Z,4.90
2018-05-07T02:58:14.616Z,4.80
2018-05-07T02:59:14.855Z,4.80
2018-05-07T03:00:15.094Z,4.20
2018-05-07T03:01:15.335Z,3.70
2018-05-07T03:02:15.575Z,4.10
2018-05-07T03:03:15.815Z,3.90
2018-05-07T03:04:16.056Z,3.50
2018-05-07T03:05:16.297Z,3.80
2018-05-07T03:06:16.535Z,4.00
2018-05-07T03:07:16.774Z,3.40
2018-05-07T03:08:17.016Z,3.70
2018-05-07T03:09:17.257Z,3.60
2018-05-07T03:10:17.496Z,3.50
2018-05-07T03:11:17.735Z,3.50
2018-05-07T03:12:17.974Z,3.20
2018-05-07T03:13:18.214Z,3.20
2018-05-07T03:14:18.453Z,3.80
2018-05-07T03:15:18.689Z,3.30
2018-05-07T03:16:18.930Z,3.20
2018-05-07T03:17:19.167Z,3.00
2018-05-07T03:18:19.410Z,3.50
2018-05-07T03:19:19.645Z,3.00
2018-05-07T03:20:19.886Z,3.10
2018-05-07T03:21:20.125Z,3.10
2018-05-07T03:22:20.365Z,3.10
2018-05-07T03:23:20.606Z,3.50
2018-05-07T03:24:20.849Z,3.50
2018-05-07T03:25:21.092Z,4.10
2018-05-07T03:26:21.328Z,4.10
2018-05-07T03:27:21.568Z,3.60
2018-05-07T03:28:21.809Z,3.70
2018-05-07T03:29:22.047Z,3.70
2018-05-07T03:30:22.291Z,3.60
2018-05-07T03:31:22.524Z,3.20
2018-05-07T03:32:22.764Z,3.20
2018-05-07T03:33:23.002Z,3.60
2018-05-07T03:34:23.247Z,3.30
2018-05-07T03:35:23.479Z,3.40
2018-05-07T03:36:23.716Z,3.30
2018-05-07T03:37:23.946Z,2.80
2018-05-07T03:38:30.848Z,3.20
2018-05-07T03:39:24.433Z,3.00
2018-05-07T03:40:24.671Z,3.00
2018-05-07T03:41:24.895Z,3.00
2018-05-07T03:42:25.145Z,3.20
2018-05-07T03:43:25.379Z,3.10
2018-05-07T03:44:25.616Z,3.30
2018-05-07T03:45:25.855Z,3.30
2018-05-07T03:46:26.093Z,2.80
2018-05-07T03:47:26.332Z,3.00
2018-05-07T03:48:26.573Z,3.60
2018-05-07T03:49:26.811Z,3.00
2018-05-07T03:50:27.051Z,3.30
2018-05-07T03:51:27.292Z,3.20
2018-05-07T03:52:27.531Z,3.40
2018-05-07T03:53:27.768Z,3.00
2018-05-07T03:54:28.006Z,3.30
2018-05-07T03:55:28.241Z,3.30
2018-05-07T03:56:28.480Z,3.60
2018-05-07T03:57:28.718Z,2.80
2018-05-07T03:58:28.957Z,2.80
2018-05-07T03:59:29.200Z,3.10
2018-05-07T04:00:29.433Z,3.50
2018-05-07T04:01:29.680Z,2.90
2018-05-07T04:02:29.916Z,3.90
2018-05-07T04:03:30.146Z,3.70
2018-05-07T04:04:30.397Z,3.60
2018-05-07T04:05:30.636Z,3.50
2018-05-07T04:06:30.877Z,4.10
2018-05-07T04:07:31.113Z,3.50
2018-05-07T04:08:31.350Z,4.00
2018-05-07T04:09:31.590Z,3.90
2018-05-07T04:10:31.827Z,3.80
2018-05-07T04:11:32.067Z,3.90
2018-05-07T04:12:32.304Z,4.20
2018-05-07T04:13:32.542Z,3.90
2018-05-07T04:14:32.782Z,4.10
2018-05-07T04:15:33.022Z,4.80
2018-05-07T04:16:33.262Z,4.60
2018-05-07T04:17:33.506Z,4.50
2018-05-07T04:18:33.809Z,4.10
2018-05-07T04:19:33.975Z,4.00
2018-05-07T04:20:34.216Z,3.70
2018-05-07T04:21:34.456Z,4.30
2018-05-07T04:22:34.697Z,3.60
2018-05-07T04:23:34.975Z,2.90
2018-05-07T04:24:35.180Z,2.60
2018-05-07T04:25:35.416Z,3.20
2018-05-07T04:26:35.656Z,3.20
2018-05-07T04:27:35.894Z,2.90
2018-05-07T04:28:36.282Z,3.00
2018-05-07T04:29:36.364Z,2.90
2018-05-07T04:30:36.613Z,3.30
2018-05-07T04:31:36.835Z,2.90
2018-05-07T04:32:44.708Z,2.90
2018-05-07T04:33:37.448Z,3.60
2018-05-07T04:34:37.615Z,3.70
2018-05-07T04:35:37.857Z,2.80
2018-05-07T04:36:38.104Z,3.00
2018-05-07T04:37:45.975Z,3.10
2018-05-07T04:38:38.643Z,2.90
2018-05-07T04:39:47.505Z,4.00
2018-05-07T04:40:39.260Z,4.00
2018-05-07T04:41:39.496Z,3.90
2018-05-07T04:42:39.731Z,4.50
2018-05-07T04:43:48.811Z,4.40
2018-05-07T04:44:49.084Z,4.10
2018-05-07T04:45:40.631Z,4.90
2018-05-07T04:46:49.580Z,3.60
2018-05-07T04:47:48.886Z,4.30
2018-05-07T04:48:41.543Z,3.90
2018-05-07T04:49:41.783Z,4.50
2018-05-07T04:50:42.035Z,4.30
2018-05-07T04:51:42.254Z,3.80
2018-05-07T04:52:42.490Z,4.30
2018-05-07T04:53:42.722Z,3.90
2018-05-07T04:54:42.955Z,4.10
2018-05-07T04:55:43.185Z,3.90
2018-05-07T04:56:43.423Z,4.40
2018-05-07T04:57:43.657Z,4.20
2018-05-07T04:58:43.913Z,4.90
2018-05-07T04:59:44.152Z,4.30
2018-05-07T05:00:44.389Z,4.60
2018-05-07T05:01:44.630Z,4.20
2018-05-07T05:02:44.869Z,4.20
2018-05-07T05:03:45.107Z,3.70
2018-05-07T05:04:45.338Z,3.00
2018-05-07T05:05:45.575Z,3.00
2018-05-07T05:06:45.817Z,2.60
2018-05-07T05:07:46.071Z,2.30
2018-05-07T05:08:46.289Z,2.60
2018-05-07T05:09:46.522Z,2.70
2018-05-07T05:10:46.766Z,2.70
2018-05-07T05:11:47.007Z,2.90
2018-05-07T05:12:47.245Z,2.60
2018-05-07T05:13:47.502Z,2.50
2018-05-07T05:14:47.724Z,2.70
2018-05-07T05:15:47.968Z,2.40
2018-05-07T05:16:48.211Z,2.40
2018-05-07T05:17:48.441Z,2.50
2018-05-07T05:18:48.682Z,2.60
2018-05-07T05:19:48.926Z,2.30
2018-05-07T05:20:49.162Z,2.20
2018-05-07T05:21:49.400Z,2.30
2018-05-07T05:22:49.645Z,2.30
2018-05-07T05:23:49.881Z,2.50
2018-05-07T05:24:50.123Z,2.10
2018-05-07T05:25:50.364Z,2.60
2018-05-07T05:26:50.602Z,2.50
2018-05-07T05:27:50.838Z,2.50
2018-05-07T05:28:51.079Z,2.40
2018-05-07T05:29:51.321Z,2.70
2018-05-07T05:30:51.559Z,2.40
2018-05-07T05:31:51.797Z,2.40
2018-05-07T05:32:52.042Z,2.30
2018-05-07T05:33:52.283Z,2.30
2018-05-07T05:34:52.523Z,2.70
2018-05-07T05:35:52.764Z,2.30
2018-05-07T05:36:53.007Z,2.50
2018-05-07T05:37:53.253Z,2.30
2018-05-07T05:38:53.490Z,2.60
2018-05-07T05:39:53.732Z,2.40
2018-05-07T05:40:53.976Z,2.50
2018-05-07T05:41:54.215Z,2.60
2018-05-07T05:42:54.455Z,2.60
2018-05-07T05:43:54.696Z,2.70
2018-05-07T05:44:54.943Z,2.20
2018-05-07T05:45:55.177Z,2.60
2018-05-07T05:46:55.421Z,2.50
2018-05-07T05:47:55.665Z,2.50
2018-05-07T05:48:55.907Z,2.70
2018-05-07T05:49:56.175Z,2.60
2018-05-07T05:50:56.380Z,2.40
2018-05-07T05:51:56.627Z,2.90
2018-05-07T05:52:56.865Z,2.90
2018-05-07T05:53:57.107Z,3.40
2018-05-07T05:54:57.352Z,3.20
2018-05-07T05:55:57.588Z,3.50
2018-05-07T05:56:57.831Z,3.70
2018-05-07T05:57:58.074Z,3.60
2018-05-07T05:58:58.316Z,3.50
2018-05-07T05:59:58.557Z,3.50
2018-05-07T06:00:58.797Z,3.70
2018-05-07T06:01:59.044Z,3.10
2018-05-07T06:02:59.275Z,3.90
2018-05-07T06:03:59.537Z,3.40
2018-05-07T06:04:59.757Z,3.40
2018-05-07T06:05:59.998Z,3.80
2018-05-07T06:07:00.239Z,3.70
2018-05-07T06:08:00.491Z,3.30
2018-05-07T06:09:00.716Z,3.20
2018-05-07T06:10:00.954Z,2.60
2018-05-07T06:11:01.195Z,2.20
2018-05-07T06:12:01.436Z,2.20
2018-05-07T06:13:01.679Z,2.30
2018-05-07T06:14:01.920Z,2.20
2018-05-07T06:15:02.304Z,2.00
2018-05-07T06:16:02.403Z,2.00
2018-05-07T06:17:02.652Z,2.10
2018-05-07T06:18:02.885Z,2.40
2018-05-07T06:19:03.129Z,2.20
2018-05-07T06:20:03.369Z,2.00
2018-05-07T06:21:03.612Z,1.90
2018-05-07T06:22:03.855Z,1.80
2018-05-07T06:23:04.100Z,2.10
2018-05-07T06:24:04.341Z,1.90
2018-05-07T06:25:04.582Z,2.10
2018-05-07T06:26:04.822Z,1.80
2018-05-07T06:27:05.068Z,2.00
2018-05-07T06:28:05.309Z,1.90
2018-05-07T06:29:05.556Z,2.20
2018-05-07T06:30:05.795Z,2.40
2018-05-07T06:31:06.042Z,1.80
2018-05-07T06:32:06.289Z,2.10
2018-05-07T06:33:06.528Z,2.40
2018-05-07T06:34:06.770Z,2.00
2018-05-07T06:35:07.014Z,2.60
2018-05-07T06:36:07.254Z,2.20
2018-05-07T06:37:07.497Z,2.50
2018-05-07T06:38:07.742Z,3.00
2018-05-07T06:39:07.984Z,3.10
2018-05-07T06:40:08.227Z,4.00
2018-05-07T06:41:08.472Z,3.20
2018-05-07T06:42:08.710Z,3.30
2018-05-07T06:43:08.953Z,3.10
2018-05-07T06:44:09.193Z,2.50
2018-05-07T06:45:09.440Z,3.30
2018-05-07T06:46:09.679Z,3.40
2018-05-07T06:47:09.921Z,4.50
2018-05-07T06:48:10.166Z,5.10
2018-05-07T06:49:10.408Z,4.80
2018-05-07T06:50:10.650Z,4.00
2018-05-07T06:51:10.895Z,3.10
2018-05-07T06:52:11.179Z,2.60
2018-05-07T06:53:11.386Z,3.00
2018-05-07T06:54:11.628Z,3.20
2018-05-07T06:55:11.870Z,2.90
2018-05-07T06:56:12.113Z,2.40
2018-05-07T06:57:12.356Z,2.10
2018-05-07T06:58:12.599Z,2.20
2018-05-07T06:59:12.841Z,2.20
2018-05-07T07:00:13.086Z,2.40
2018-05-07T07:01:13.330Z,2.10
2018-05-07T07:02:13.637Z,2.20
2018-05-07T07:03:13.820Z,2.30
2018-05-07T07:04:14.066Z,1.90
2018-05-07T07:05:14.313Z,2.00
2018-05-07T07:06:14.557Z,2.00
2018-05-07T07:07:14.800Z,2.20
2018-05-07T07:08:15.183Z,2.10
2018-05-07T07:09:15.294Z,2.60
2018-05-07T07:10:15.537Z,1.90
2018-05-07T07:11:15.785Z,1.90
2018-05-07T07:12:16.031Z,1.90
2018-05-07T07:13:16.277Z,2.20
2018-05-07T07:14:16.527Z,2.00
2018-05-07T07:15:16.768Z,2.20
2018-05-07T07:16:17.016Z,2.00
2018-05-07T07:17:17.265Z,2.10
2018-05-07T07:18:17.514Z,2.00
2018-05-07T07:19:17.766Z,2.10
2018-05-07T07:20:18.010Z,2.10
2018-05-07T07:21:18.258Z,2.00
2018-05-07T07:22:18.508Z,1.80
2018-05-07T07:23:18.755Z,2.10
2018-05-07T07:24:19.004Z,1.70
2018-05-07T07:25:19.252Z,2.10
2018-05-07T07:26:19.503Z,2.40
2018-05-07T07:27:19.753Z,1.90
2018-05-07T07:28:20.042Z,2.20
2018-05-07T07:29:20.253Z,2.20
2018-05-07T07:30:20.502Z,2.40
2018-05-07T07:31:20.763Z,1.80
2018-05-07T07:32:21.000Z,2.00
2018-05-07T07:33:21.251Z,2.00
2018-05-07T07:34:21.501Z,1.90
2018-05-07T07:35:21.751Z,2.10
2018-05-07T07:36:22.003Z,2.00
2018-05-07T07:37:22.253Z,1.80
2018-05-07T07:38:22.500Z,1.80
2018-05-07T07:39:22.806Z,2.00
2018-05-07T07:40:22.999Z,2.00
2018-05-07T07:41:23.249Z,1.90
2018-05-07T07:42:23.500Z,2.00
2018-05-07T07:43:23.759Z,1.50
2018-05-07T07:44:24.002Z,2.10
2018-05-07T07:45:24.252Z,1.90
2018-05-07T07:46:24.508Z,1.90
2018-05-07T07:47:24.756Z,2.10
2018-05-07T07:48:25.011Z,2.00
2018-05-07T07:49:25.257Z,1.90
2018-05-07T07:50:25.510Z,1.80
2018-05-07T07:51:25.764Z,1.90
2018-05-07T07:52:26.014Z,1.70
2018-05-07T07:53:26.267Z,2.00
2018-05-07T07:54:26.514Z,1.80
2018-05-07T07:55:26.768Z,1.70
2018-05-07T07:56:27.017Z,2.20
2018-05-07T07:57:27.268Z,1.80
2018-05-07T07:58:27.518Z,1.80
2018-05-07T07:59:27.771Z,1.70
2018-05-07T08:00:28.022Z,1.60
2018-05-07T08:01:28.274Z,2.00
2018-05-07T08:02:28.527Z,1.80
2018-05-07T08:03:28.820Z,2.00
2018-05-07T08:04:29.030Z,1.80
2018-05-07T08:05:29.280Z,2.00
2018-05-07T08:06:29.535Z,1.70
2018-05-07T08:07:29.788Z,1.90
2018-05-07T08:08:30.035Z,1.90
2018-05-07T08:09:30.289Z,1.70
2018-05-07T08:10:30.539Z,1.80
2018-05-07T08:11:30.790Z,1.80
2018-05-07T08:12:31.048Z,1.70
2018-05-07T08:13:31.298Z,1.80
2018-05-07T08:14:31.551Z,1.60
2018-05-07T08:15:31.803Z,1.80
2018-05-07T08:16:32.056Z,1.50
2018-05-07T08:17:32.306Z,2.00
2018-05-07T08:18:32.595Z,1.40
2018-05-07T08:19:32.815Z,1.60
2018-05-07T08:20:33.067Z,1.40
2018-05-07T08:21:33.322Z,1.80
2018-05-07T08:22:33.574Z,1.40
2018-05-07T08:23:33.827Z,1.90
2018-05-07T08:24:34.080Z,1.70
2018-05-07T08:25:34.332Z,1.60
2018-05-07T08:26:34.586Z,1.60
2018-05-07T08:27:34.841Z,1.80
2018-05-07T08:28:35.091Z,1.80
2018-05-07T08:29:35.344Z,1.70
2018-05-07T08:30:35.618Z,1.80
2018-05-07T08:31:35.855Z,1.80
2018-05-07T08:32:36.102Z,1.50
2018-05-07T08:33:36.352Z,1.50
2018-05-07T08:34:36.607Z,1.60
2018-05-07T08:35:36.858Z,1.80
2018-05-07T08:36:37.166Z,1.90
2018-05-07T08:37:37.368Z,1.70
2018-05-07T08:38:37.617Z,1.80
2018-05-07T08:39:37.870Z,1.50
2018-05-07T08:40:38.123Z,1.80
2018-05-07T08:41:38.377Z,1.60
2018-05-07T08:42:38.630Z,1.50
2018-05-07T08:43:38.882Z,1.60
2018-05-07T08:44:39.135Z,1.50
2018-05-07T08:45:39.385Z,2.00
2018-05-07T08:46:39.643Z,1.70
2018-05-07T08:47:39.895Z,1.80
2018-05-07T08:48:40.148Z,1.50
2018-05-07T08:49:40.398Z,1.40
2018-05-07T08:50:40.652Z,1.60
2018-05-07T08:51:40.905Z,1.50
2018-05-07T08:52:41.175Z,1.50
2018-05-07T08:53:41.408Z,1.50
2018-05-07T08:54:41.664Z,1.40
2018-05-07T08:55:41.915Z,1.60
2018-05-07T08:56:42.170Z,1.60
2018-05-07T08:57:42.424Z,1.60
2018-05-07T08:58:42.678Z,1.60
2018-05-07T08:59:42.934Z,1.60
2018-05-07T09:00:43.186Z,1.50
2018-05-07T09:01:43.438Z,1.60
2018-05-07T09:02:43.690Z,1.80
2018-05-07T09:03:43.943Z,1.60
2018-05-07T09:04:44.197Z,1.50
2018-05-07T09:05:44.450Z,1.50
2018-05-07T09:06:44.704Z,1.40
2018-05-07T09:07:44.959Z,1.60
2018-05-07T09:08:45.212Z,1.60
2018-05-07T09:09:45.474Z,1.60
2018-05-07T09:10:45.723Z,1.70
2018-05-07T09:11:45.976Z,1.70
2018-05-07T09:12:46.234Z,1.60
2018-05-07T09:13:46.490Z,1.60
2018-05-07T09:14:46.744Z,1.80
2018-05-07T09:15:47.000Z,1.60
2018-05-07T09:16:47.253Z,1.70
2018-05-07T09:17:47.506Z,1.50
2018-05-07T09:18:47.759Z,1.60
2018-05-07T09:19:48.014Z,1.30
2018-05-07T09:20:48.265Z,1.20
2018-05-07T09:21:48.520Z,1.50
2018-05-07T09:22:48.777Z,1.40
2018-05-07T09:23:49.031Z,1.30
2018-05-07T09:24:49.343Z,1.50
2018-05-07T09:25:49.542Z,1.60
2018-05-07T09:26:49.797Z,1.30
2018-05-07T09:27:50.053Z,1.60
2018-05-07T09:28:50.306Z,1.50
2018-05-07T09:29:50.560Z,1.50
2018-05-07T09:30:50.816Z,1.40
2018-05-07T09:31:51.070Z,1.60
2018-05-07T09:32:51.327Z,1.40
2018-05-07T09:33:51.581Z,1.30
2018-05-07T09:34:51.843Z,1.10
2018-05-07T09:35:52.093Z,1.20
2018-05-07T09:36:52.349Z,1.20
2018-05-07T09:37:52.604Z,1.10
2018-05-07T09:38:52.863Z,1.30
2018-05-07T09:39:53.122Z,1.60
2018-05-07T09:40:53.377Z,1.40
2018-05-07T09:41:53.629Z,1.40
2018-05-07T09:42:53.924Z,1.10
2018-05-07T09:43:54.136Z,1.50
2018-05-07T09:44:54.446Z,1.30
2018-05-07T09:45:54.653Z,1.40
2018-05-07T09:46:54.913Z,1.20
2018-05-07T09:47:55.169Z,1.20
2018-05-07T09:48:55.438Z,1.50
2018-05-07T09:49:55.680Z,1.60
2018-05-07T09:50:55.938Z,1.30
2018-05-07T09:51:56.196Z,1.00
2018-05-07T09:52:56.454Z,1.40
2018-05-07T09:53:56.714Z,1.40
2018-05-07T09:54:56.965Z,1.10
2018-05-07T09:55:57.221Z,1.40
2018-05-07T09:56:57.618Z,1.40
2018-05-07T09:57:57.737Z,1.30
2018-05-07T09:58:57.994Z,1.50
2018-05-07T09:59:58.256Z,1.40
2018-05-07T10:00:58.508Z,1.20
2018-05-07T10:01:58.765Z,1.50
2018-05-07T10:02:59.021Z,1.20
2018-05-07T10:03:59.274Z,1.40
2018-05-07T10:04:59.537Z,1.50
2018-05-07T10:05:59.795Z,1.80
2018-05-07T10:07:00.053Z,1.30
2018-05-07T10:08:00.308Z,1.40
2018-05-07T10:09:00.571Z,1.30
2018-05-07T10:10:00.825Z,1.60
2018-05-07T10:11:01.082Z,1.30
2018-05-07T10:12:01.340Z,1.50
2018-05-07T10:13:01.600Z,1.40
2018-05-07T10:14:01.857Z,1.50
2018-05-07T10:15:02.114Z,1.60
2018-05-07T10:16:02.371Z,1.60
2018-05-07T10:17:02.713Z,1.40
2018-05-07T10:18:02.882Z,1.50
2018-05-07T10:19:03.141Z,1.40
2018-05-07T10:20:03.400Z,1.30
2018-05-07T10:21:03.659Z,1.50
2018-05-07T10:22:03.919Z,1.30
2018-05-07T10:23:04.173Z,1.90
2018-05-07T10:24:04.455Z,1.20
2018-05-07T10:25:04.687Z,1.50
2018-05-07T10:26:04.943Z,1.80
2018-05-07T10:27:05.202Z,1.40
2018-05-07T10:28:05.464Z,1.40
2018-05-07T10:29:05.724Z,1.40
2018-05-07T10:30:05.981Z,1.20
2018-05-07T10:31:06.233Z,1.30
2018-05-07T10:32:06.490Z,1.50
2018-05-07T10:33:06.746Z,1.30
2018-05-07T10:34:07.003Z,1.40
2018-05-07T10:35:07.261Z,1.50
2018-05-07T10:36:07.517Z,1.30
2018-05-07T10:37:07.781Z,1.40
2018-05-07T10:38:08.033Z,1.30
2018-05-07T10:39:08.295Z,1.20
2018-05-07T10:40:08.550Z,1.20
2018-05-07T10:41:08.805Z,1.20
2018-05-07T10:42:09.065Z,1.20
2018-05-07T10:43:09.321Z,1.40
2018-05-07T10:44:09.576Z,1.20
2018-05-07T10:45:09.833Z,1.30
2018-05-07T10:46:10.089Z,1.20
2018-05-07T10:47:10.348Z,1.10
2018-05-07T10:48:10.606Z,1.20
2018-05-07T10:49:10.906Z,1.20
2018-05-07T10:50:11.127Z,1.30
2018-05-07T10:51:11.383Z,1.00
2018-05-07T10:52:11.647Z,1.00
2018-05-07T10:53:11.910Z,1.10
2018-05-07T10:54:12.163Z,1.30
2018-05-07T10:55:12.425Z,1.10
2018-05-07T10:56:12.688Z,1.40
2018-05-07T10:57:12.937Z,1.20
2018-05-07T10:58:13.196Z,1.20
2018-05-07T10:59:13.453Z,0.90
2018-05-07T11:00:13.710Z,1.00
2018-05-07T11:01:13.966Z,1.00
2018-05-07T11:02:14.225Z,1.20
2018-05-07T11:03:14.478Z,1.20
2018-05-07T11:04:14.732Z,1.00
2018-05-07T11:05:14.988Z,1.00
2018-05-07T11:06:15.246Z,1.20
2018-05-07T11:07:15.505Z,1.10
2018-05-07T11:08:15.763Z,1.10
2018-05-07T11:09:16.022Z,1.40
2018-05-07T11:10:16.280Z,1.20
2018-05-07T11:11:16.537Z,1.40
2018-05-07T11:12:16.795Z,1.30
2018-05-07T11:13:17.051Z,1.40
2018-05-07T11:14:17.308Z,1.30
2018-05-07T11:15:17.566Z,1.40
2018-05-07T11:16:17.821Z,1.20
2018-05-07T11:17:18.078Z,1.30
2018-05-07T11:18:18.334Z,1.00
2018-05-07T11:19:18.592Z,1.30
2018-05-07T11:20:18.850Z,0.90
2018-05-07T11:21:19.111Z,1.10
2018-05-07T11:22:19.369Z,1.00
2018-05-07T11:23:19.624Z,1.40
2018-05-07T11:24:19.881Z,0.90
2018-05-07T11:25:20.138Z,1.10
2018-05-07T11:26:20.395Z,0.90
2018-05-07T11:27:20.652Z,1.00
2018-05-07T11:28:20.910Z,1.00
2018-05-07T11:29:21.165Z,1.10
2018-05-07T11:30:21.426Z,0.90
2018-05-07T11:31:21.683Z,0.90
2018-05-07T11:32:21.941Z,1.10
2018-05-07T11:33:22.203Z,1.10
2018-05-07T11:34:22.456Z,1.00
2018-05-07T11:35:22.720Z,1.20
2018-05-07T11:36:22.974Z,1.00
2018-05-07T11:37:23.232Z,1.00
2018-05-07T11:38:23.487Z,0.90
2018-05-07T11:39:23.748Z,1.00
2018-05-07T11:40:24.006Z,1.10
2018-05-07T11:41:24.260Z,1.00
2018-05-07T11:42:24.524Z,1.50
2018-05-07T11:43:24.775Z,1.10
2018-05-07T11:44:25.036Z,1.00
2018-05-07T11:45:25.291Z,1.00
2018-05-07T11:46:25.554Z,1.30
2018-05-07T11:47:25.854Z,1.30
2018-05-07T11:48:26.063Z,1.20
2018-05-07T11:49:26.319Z,1.40
2018-05-07T11:50:26.580Z,1.30
2018-05-07T11:51:26.831Z,1.20
2018-05-07T11:52:27.092Z,1.60
2018-05-07T11:53:27.345Z,1.10
2018-05-07T11:54:27.601Z,1.20
2018-05-07T11:55:27.861Z,1.20
2018-05-07T11:56:28.115Z,1.30
2018-05-07T11:57:28.372Z,1.50
2018-05-07T11:58:28.631Z,1.50
2018-05-07T11:59:28.888Z,1.20
2018-05-07T12:00:29.148Z,1.30
2018-05-07T12:01:29.402Z,1.30
2018-05-07T12:02:29.733Z,1.30
2018-05-07T12:03:29.917Z,1.20
2018-05-07T12:04:30.175Z,0.90
2018-05-07T12:05:30.429Z,1.10
2018-05-07T12:06:30.688Z,1.10
2018-05-07T12:07:30.944Z,1.30
2018-05-07T12:08:31.202Z,1.00
2018-05-07T12:09:31.457Z,1.20
2018-05-07T12:10:31.714Z,1.30
2018-05-07T12:11:31.970Z,1.10
2018-05-07T12:12:32.229Z,1.10
2018-05-07T12:13:32.484Z,1.20
2018-05-07T12:14:32.745Z,1.10
2018-05-07T12:15:33.001Z,1.10
2018-05-07T12:16:33.263Z,1.10
2018-05-07T12:17:33.515Z,1.10
2018-05-07T12:18:33.775Z,1.10
2018-05-07T12:19:34.031Z,1.00
2018-05-07T12:20:34.303Z,0.90
2018-05-07T12:21:34.548Z,0.90
2018-05-07T12:22:34.828Z,1.00
2018-05-07T12:23:35.244Z,1.10
2018-05-07T12:24:35.365Z,0.90
2018-05-07T12:25:35.637Z,0.90
2018-05-07T12:26:35.962Z,0.90
2018-05-07T12:27:36.227Z,0.90
2018-05-07T12:28:36.465Z,1.10
2018-05-07T12:29:36.722Z,1.00
2018-05-07T12:30:36.980Z,0.90
2018-05-07T12:31:37.517Z,0.80
2018-05-07T12:32:37.481Z,1.00
2018-05-07T12:33:37.731Z,1.10
2018-05-07T12:34:37.994Z,1.00
2018-05-07T12:35:38.245Z,1.00
2018-05-07T12:36:38.541Z,0.80
2018-05-07T12:37:38.833Z,0.90
2018-05-07T12:38:39.070Z,1.00
2018-05-07T12:39:39.342Z,0.90
2018-05-07T12:40:39.582Z,1.40
2018-05-07T12:41:39.863Z,1.00
2018-05-07T12:42:40.105Z,1.20
2018-05-07T12:43:40.356Z,1.00
2018-05-07T12:44:40.612Z,0.80
2018-05-07T12:45:40.892Z,0.90
2018-05-07T12:46:41.198Z,0.80
2018-05-07T12:47:41.410Z,0.90
2018-05-07T12:48:41.668Z,0.70
2018-05-07T12:49:41.913Z,0.80
2018-05-07T12:50:42.201Z,0.90
2018-05-07T12:51:42.459Z,0.70
2018-05-07T12:52:42.721Z,0.90
2018-05-07T12:53:42.996Z,0.80
2018-05-07T12:54:43.251Z,0.80
2018-05-07T12:55:43.508Z,1.00
2018-05-07T12:56:43.769Z,0.90
2018-05-07T12:57:44.024Z,0.80
2018-05-07T12:58:44.291Z,0.70
2018-05-07T12:59:44.540Z,0.90
2018-05-07T13:00:44.794Z,0.80
2018-05-07T13:01:45.040Z,1.10
2018-05-07T13:02:45.349Z,0.80
2018-05-07T13:03:45.655Z,1.60
2018-05-07T13:04:45.958Z,1.10
2018-05-07T13:05:46.337Z,1.00
2018-05-07T13:06:46.556Z,0.90
2018-05-07T13:07:46.804Z,1.20
2018-05-07T13:08:47.111Z,1.10
2018-05-07T13:09:47.475Z,1.50
2018-05-07T13:10:47.799Z,1.20
2018-05-07T13:11:48.117Z,1.20
2018-05-07T13:12:48.377Z,1.10
2018-05-07T13:13:48.643Z,1.60
2018-05-07T13:14:48.960Z,1.30
2018-05-07T13:15:49.244Z,1.10
2018-05-07T13:16:49.501Z,1.10
2018-05-07T13:17:49.921Z,1.10
2018-05-07T13:18:50.171Z,1.10
2018-05-07T13:19:50.512Z,1.00
2018-05-07T13:20:50.867Z,1.00
2018-05-07T13:21:51.062Z,1.10